Time;durP1;ratioP1;P1;durP2;ratioP2;P2;SDS_P1;SDS_P2;PMS_P1;PMS_P2;Temp;Humidity;BMP_temperature;BMP_pressure;BME280_temperature;BME280_humidity;BME280_pressure;Samples;Min_cycle;Max_cycle;Signal;HPM_P1;HPM_P2
2022/11/05 00:09:40;;;;;;;;;;;;;;;11.19;100.00;99669.28;3054955;19;20397;-47
2022/11/05 00:10:45;;;;;;;;;;;;;;;11.22;100.00;99661.03;3054178;19;19923;-47
2022/11/05 00:16:57;;;;;;;;;;;;;;;11.36;100.00;99675.97;3056813;19;19930;-46
2022/11/05 00:18:02;;;;;;;;;;;;;;;11.33;100.00;99677.09;3056660;19;19926;-47
2022/11/05 00:19:07;;;;;;;;;;;;;;;11.36;100.00;99670.63;3056589;19;19922;-47
2022/11/05 00:20:12;;;;;;;;;;;;;;;11.37;100.00;99677.69;3056183;19;19937;-47
2022/11/05 00:25:16;;;;;;;;;;;;;;;11.40;100.00;99677.44;3056658;19;20005;-47
2022/11/05 00:26:20;;;;;;;;;;;;;;;11.40;100.00;99678.31;3056632;19;19922;-47
2022/11/05 00:27:22;;;;;;;;;;;;;;;11.40;100.00;99675.63;3056488;19;19945;-46
2022/11/05 00:28:27;;;;;;;;;;;;;;;11.39;100.00;99670.41;3055314;19;20401;-47
2022/11/05 00:29:28;;;;;;;;;;;;;;;11.32;100.00;99678.06;3055422;19;19930;-47
2022/11/05 00:30:34;;;;;;;;;;;;;;;11.36;100.00;99675.97;3055233;19;20015;-47
2022/11/05 00:31:36;;;;;;;;;;;;;;;11.38;100.00;99676.72;3055532;19;19918;-47
2022/11/05 00:32:41;;;;;;;;;;;;;;;11.34;100.00;99680.59;3056486;19;20015;-47
2022/11/05 00:33:42;;;;;;;;;;;;;;;11.34;100.00;99677.94;3055696;19;19926;-46
2022/11/05 00:34:47;;;;;;;;;;;;;;;11.33;100.00;99670.91;3055834;19;19923;-46
2022/11/05 00:35:51;;;;;;;;;;;;;;;11.35;100.00;99668.97;3055204;19;20290;-46
2022/11/05 00:36:53;;;;;;;;;;;;;;;11.33;100.00;99661.06;3056550;19;19919;-47
2022/11/05 00:37:57;;;;;;;;;;;;;;;11.33;100.00;99663.72;3056091;19;19919;-46
2022/11/05 00:38:59;;;;;;;;;;;;;;;11.26;100.00;99664.31;3056544;19;19944;-47
2022/11/05 00:40:04;;;;;;;;;;;;;;;11.27;100.00;99660.66;3055900;19;19946;-47
2022/11/05 00:41:06;;;;;;;;;;;;;;;11.16;100.00;99659.69;3056271;19;20269;-46
2022/11/05 00:46:01;;;;;;;;;;;;;;;11.11;100.00;99655.66;3056342;19;19936;-47
2022/11/05 00:49:37;;;;;;;;;;;;;;;11.08;100.00;99661.25;3055854;19;19918;-47
2022/11/05 00:50:41;;;;;;;;;;;;;;;11.07;100.00;99657.72;3055834;19;19935;-47
2022/11/05 00:51:43;;;;;;;;;;;;;;;11.02;100.00;99657.22;3056979;19;19922;-47
2022/11/05 00:52:54;;;;;;;;;;;;;;;11.00;100.00;99659.16;3056094;19;19923;-47
2022/11/05 00:53:59;;;;;;;;;;;;;;;10.99;100.00;99654.78;3056467;19;19927;-46
2022/11/05 00:55:00;;;;;;;;;;;;;;;11.03;100.00;99653.59;3056028;19;19919;-47
2022/11/05 00:56:05;;;;;;;;;;;;;;;10.99;100.00;99646.75;3055962;19;19941;-47
2022/11/05 00:57:07;;;;;;;;;;;;;;;10.97;100.00;99648.72;3057154;19;20411;-47
2022/11/05 00:58:16;;;;;;;;;;;;;;;10.95;100.00;99648.00;3055194;19;19936;-47
2022/11/05 00:59:21;;;;;;;;;;;;;;;10.94;100.00;99632.94;3055065;19;19918;-46
2022/11/05 01:00:26;;;;;;;;;;;;;;;10.94;100.00;99643.63;3056183;19;19919;-46
2022/11/05 01:01:30;;;;;;;;;;;;;;;10.97;100.00;99640.72;3055645;19;19911;-46
2022/11/05 01:02:33;;;;;;;;;;;;;;;10.96;100.00;99651.50;3056598;19;20022;-46
2022/11/05 01:03:38;;;;;;;;;;;;;;;10.94;100.00;99654.28;3055946;19;19923;-46
2022/11/05 01:04:40;;;;;;;;;;;;;;;10.93;100.00;99641.06;3055421;19;19922;-47
2022/11/05 01:05:48;;;;;;;;;;;;;;;10.88;100.00;99638.72;3055040;19;19926;-47
2022/11/05 01:06:50;;;;;;;;;;;;;;;10.88;100.00;99641.41;3056803;19;19968;-47
2022/11/05 01:07:55;;;;;;;;;;;;;;;10.90;100.00;99639.47;3055314;19;19923;-46
2022/11/05 01:08:57;;;;;;;;;;;;;;;10.94;100.00;99642.75;3056219;19;19952;-47
2022/11/05 01:10:02;;;;;;;;;;;;;;;10.91;100.00;99643.00;3054931;19;19927;-47
2022/11/05 01:11:31;;;;;;;;;;;;;;;10.89;100.00;99645.78;3054658;19;19922;-47
2022/11/05 01:12:34;;;;;;;;;;;;;;;10.91;100.00;99643.84;3056017;19;20385;-47
2022/11/05 01:13:39;;;;;;;;;;;;;;;10.91;100.00;99643.84;3055793;19;19949;-47
2022/11/05 01:14:41;;;;;;;;;;;;;;;10.87;100.00;99647.69;3055594;19;19931;-46
2022/11/05 01:15:46;;;;;;;;;;;;;;;10.89;100.00;99644.91;3055456;19;20011;-46
2022/11/05 01:16:51;;;;;;;;;;;;;;;10.88;100.00;99648.56;3056585;19;19942;-46
2022/11/05 01:17:55;;;;;;;;;;;;;;;10.90;100.00;99652.81;3055577;19;19923;-46
2022/11/05 01:18:57;;;;;;;;;;;;;;;10.90;100.00;99649.28;3055991;19;19919;-46
2022/11/05 01:20:02;;;;;;;;;;;;;;;10.89;100.00;99655.59;3056015;19;19923;-46
2022/11/05 01:21:15;;;;;;;;;;;;;;;10.89;100.00;99651.09;3055553;19;20325;-46
2022/11/05 01:22:17;;;;;;;;;;;;;;;10.81;100.00;99642.84;3057025;19;20745;-46
2022/11/05 01:23:22;;;;;;;;;;;;;;;10.90;100.00;99658.16;3055658;19;20051;-47
2022/11/05 01:24:24;;;;;;;;;;;;;;;10.88;100.00;99660.09;3055750;19;19919;-46
2022/11/05 01:25:29;;;;;;;;;;;;;;;10.90;100.00;99660.81;3055321;19;19915;-47
2022/11/05 01:26:30;;;;;;;;;;;;;;;10.91;100.00;99665.19;3055596;19;19926;-46
2022/11/05 01:27:35;;;;;;;;;;;;;;;10.90;100.00;99667.97;3056859;19;20261;-46
2022/11/05 01:28:37;;;;;;;;;;;;;;;10.91;100.00;99675.88;3055529;19;19929;-47
2022/11/05 01:29:41;;;;;;;;;;;;;;;10.92;100.00;99674.91;3056180;19;19946;-46
2022/11/05 01:30:45;;;;;;;;;;;;;;;10.90;100.00;99673.31;3055745;19;19926;-46
2022/11/05 01:31:47;;;;;;;;;;;;;;;10.92;100.00;99671.38;3055135;19;20015;-47
2022/11/05 01:32:52;;;;;;;;;;;;;;;10.89;100.00;99669.78;3055430;19;19949;-46
2022/11/05 01:33:53;;;;;;;;;;;;;;;10.87;100.00;99658.38;3055907;19;19930;-47
2022/11/05 01:34:58;;;;;;;;;;;;;;;10.89;100.00;99677.81;3055046;19;20592;-47
2022/11/05 01:36:00;;;;;;;;;;;;;;;10.89;100.00;99666.28;3055685;19;19943;-46
2022/11/05 01:37:04;;;;;;;;;;;;;;;10.91;100.00;99665.19;3054988;19;20342;-47
2022/11/05 01:38:08;;;;;;;;;;;;;;;10.88;100.00;99678.75;3054986;19;20387;-48
2022/11/05 01:39:10;;;;;;;;;;;;;;;10.89;100.00;99671.63;3055675;19;19919;-46
2022/11/05 01:40:17;;;;;;;;;;;;;;;10.86;100.00;99675.41;3055966;19;19933;-46
2022/11/05 01:41:19;;;;;;;;;;;;;;;10.85;100.00;99671.03;3055526;19;19965;-46
2022/11/05 01:42:24;;;;;;;;;;;;;;;10.88;100.00;99673.44;3056514;19;20271;-46
2022/11/05 01:43:26;;;;;;;;;;;;;;;10.88;100.00;99680.59;3055036;19;20333;-46
2022/11/05 01:44:49;;;;;;;;;;;;;;;10.88;100.00;99676.09;3055149;19;19934;-46
2022/11/05 01:45:55;;;;;;;;;;;;;;;10.90;100.00;99679.50;3055387;19;19919;-46
2022/11/05 01:46:56;;;;;;;;;;;;;;;10.92;100.00;99693.59;3054522;19;19923;-47
2022/11/05 01:48:03;;;;;;;;;;;;;;;10.94;100.00;99691.66;3054633;19;19933;-46
2022/11/05 01:49:09;;;;;;;;;;;;;;;10.96;100.00;99684.41;3055183;19;19923;-46
2022/11/05 01:50:23;;;;;;;;;;;;;;;10.98;100.00;99687.81;3054798;19;20381;-47
2022/11/05 01:51:27;;;;;;;;;;;;;;;11.00;100.00;99685.00;3054312;19;19919;-46
2022/11/05 01:52:30;;;;;;;;;;;;;;;11.01;100.00;99676.03;3056958;19;19919;-46
2022/11/05 01:53:38;;;;;;;;;;;;;;;11.02;100.00;99683.91;3054935;19;19970;-46
2022/11/05 01:54:40;;;;;;;;;;;;;;;11.04;100.00;99676.66;3056148;19;19915;-46
2022/11/05 01:55:46;;;;;;;;;;;;;;;11.06;100.00;99681.88;3057723;19;19964;-46
2022/11/05 01:56:49;;;;;;;;;;;;;;;11.09;100.00;99687.00;3058355;19;20330;-46
2022/11/05 01:57:54;;;;;;;;;;;;;;;11.08;100.00;99679.94;3057196;19;19949;-46
2022/11/05 01:59:00;;;;;;;;;;;;;;;11.11;100.00;99677.00;3057931;19;20006;-46
2022/11/05 02:00:02;;;;;;;;;;;;;;;11.13;100.00;99683.94;3058328;19;19922;-47
2022/11/05 02:01:16;;;;;;;;;;;;;;;11.16;100.00;99686.38;3058052;19;19942;-46
2022/11/05 02:02:18;;;;;;;;;;;;;;;11.16;100.00;99681.03;3059216;19;19911;-46
2022/11/05 02:03:23;;;;;;;;;;;;;;;11.18;100.00;99692.47;3057916;19;19911;-45
2022/11/05 02:04:35;;;;;;;;;;;;;;;11.21;100.00;99680.72;3058536;19;19922;-46
2022/11/05 02:05:41;;;;;;;;;;;;;;;11.22;100.00;99689.56;3057302;19;20022;-46
2022/11/05 02:06:45;;;;;;;;;;;;;;;11.22;100.00;99689.56;3057760;19;20508;-46
2022/11/05 02:07:49;;;;;;;;;;;;;;;11.19;100.00;99685.31;3059767;19;19926;-46
2022/11/05 02:08:54;;;;;;;;;;;;;;;11.19;100.00;99686.16;3057606;19;20337;-47
2022/11/05 02:10:12;;;;;;;;;;;;;;;11.19;100.00;99691.50;3056929;19;19938;-46
2022/11/05 02:11:16;;;;;;;;;;;;;;;11.18;100.00;99689.78;3057475;19;19939;-47
2022/11/05 02:12:20;;;;;;;;;;;;;;;11.17;100.00;99688.09;3056807;19;19950;-45
2022/11/05 02:13:22;;;;;;;;;;;;;;;11.19;100.00;99683.50;3057199;19;20389;-46
2022/11/05 02:14:26;;;;;;;;;;;;;;;11.22;100.00;99694.91;3056882;19;19945;-46
2022/11/05 02:15:40;;;;;;;;;;;;;;;11.21;100.00;99679.84;3058131;19;19922;-46
2022/11/05 02:17:02;;;;;;;;;;;;;;;11.21;100.00;99687.88;3057467;19;19922;-46
2022/11/05 02:18:12;;;;;;;;;;;;;;;11.21;100.00;99687.88;3056723;19;19946;-45
2022/11/05 02:19:20;;;;;;;;;;;;;;;11.22;100.00;99684.22;3057622;19;19986;-47
2022/11/05 02:20:37;;;;;;;;;;;;;;;11.18;100.00;99684.47;3057168;19;19937;-46
2022/11/05 02:21:47;;;;;;;;;;;;;;;11.18;100.00;99678.25;3057469;19;20293;-47
2022/11/05 02:23:03;;;;;;;;;;;;;;;11.19;100.00;99667.47;3058562;19;19919;-47
2022/11/05 02:24:16;;;;;;;;;;;;;;;11.19;100.00;99674.63;3057526;19;20294;-47
2022/11/05 02:25:26;;;;;;;;;;;;;;;11.18;100.00;99673.78;3057441;19;20485;-48
2022/11/05 02:26:28;;;;;;;;;;;;;;;11.21;100.00;99687.88;3057326;19;19927;-47
2022/11/05 02:27:45;;;;;;;;;;;;;;;11.19;100.00;99675.47;3059032;19;20334;-47
2022/11/05 02:28:59;;;;;;;;;;;;;;;11.17;100.00;99680.09;3058194;19;20338;-47
2022/11/05 02:30:06;;;;;;;;;;;;;;;11.15;100.00;99679.34;3057261;19;20281;-47
2022/11/05 02:31:23;;;;;;;;;;;;;;;11.11;100.00;99661.84;3056980;19;19919;-47
2022/11/05 02:32:27;;;;;;;;;;;;;;;11.15;100.00;99684.69;3057678;19;19927;-47
2022/11/05 02:33:38;;;;;;;;;;;;;;;11.15;100.00;99681.16;3057755;19;19922;-47
2022/11/05 02:34:57;;;;;;;;;;;;;;;11.17;100.00;99676.56;3057400;19;19957;-47
2022/11/05 02:35:59;;;;;;;;;;;;;;;11.17;100.00;99682.75;3057144;19;19926;-47
2022/11/05 02:37:15;;;;;;;;;;;;;;;11.17;100.00;99677.41;3056939;19;19946;-48
2022/11/05 02:38:20;;;;;;;;;;;;;;;11.17;100.00;99688.09;3058107;19;19915;-47
2022/11/05 02:39:36;;;;;;;;;;;;;;;11.15;100.00;99690.03;3057222;19;20003;-47
2022/11/05 02:40:48;;;;;;;;;;;;;;;11.15;100.00;99699.84;3057390;19;19933;-47
2022/11/05 02:41:52;;;;;;;;;;;;;;;11.14;100.00;99692.81;3056466;19;19922;-47
2022/11/05 02:43:06;;;;;;;;;;;;;;;11.13;100.00;99697.28;3058100;19;19922;-47
2022/11/05 02:44:23;;;;;;;;;;;;;;;11.13;100.00;99693.78;3057935;19;19930;-47
2022/11/05 02:45:32;;;;;;;;;;;;;;;11.14;100.00;99698.16;3057628;19;19941;-47
2022/11/05 02:46:52;;;;;;;;;;;;;;;11.13;100.00;99697.28;3057475;19;19933;-47
2022/11/05 02:48:13;;;;;;;;;;;;;;;11.14;100.00;99704.34;3059250;19;19926;-48
2022/11/05 02:49:24;;;;;;;;;;;;;;;11.14;100.00;99703.50;3056762;19;20286;-46
2022/11/05 02:50:29;;;;;;;;;;;;;;;11.10;100.00;99694.88;3058491;19;20373;-47
2022/11/05 02:51:39;;;;;;;;;;;;;;;11.13;100.00;99702.63;3055175;19;20857;-47
2022/11/05 02:52:52;;;;;;;;;;;;;;;11.13;100.00;99702.63;3053266;19;19915;-47
2022/11/05 02:54:02;;;;;;;;;;;;;;;11.12;100.00;99706.28;3055126;19;19915;-48
2022/11/05 02:55:09;;;;;;;;;;;;;;;11.12;100.00;99708.94;3055391;19;19919;-47
2022/11/05 02:56:17;;;;;;;;;;;;;;;11.12;100.00;99703.59;3055136;19;20479;-47
2022/11/05 02:57:22;;;;;;;;;;;;;;;11.12;100.00;99706.28;3056624;19;19915;-47
2022/11/05 02:58:30;;;;;;;;;;;;;;;11.08;100.00;99710.16;3056420;19;19925;-47
2022/11/05 02:59:32;;;;;;;;;;;;;;;11.10;100.00;99718.91;3055391;19;20266;-48
2022/11/05 03:00:36;;;;;;;;;;;;;;;11.10;100.00;99708.25;3055696;19;20329;-47
2022/11/05 03:01:41;;;;;;;;;;;;;;;11.11;100.00;99701.03;3056365;19;19937;-46
2022/11/05 03:02:43;;;;;;;;;;;;;;;11.10;100.00;99710.91;3055389;19;19956;-47
2022/11/05 03:03:49;;;;;;;;;;;;;;;11.10;100.00;99713.56;3054604;19;20553;-47
2022/11/05 03:04:50;;;;;;;;;;;;;;;11.10;100.00;99707.38;3055870;19;20567;-47
2022/11/05 03:06:04;;;;;;;;;;;;;;;11.10;100.00;99699.38;3054193;19;19944;-47
2022/11/05 03:07:09;;;;;;;;;;;;;;;11.08;100.00;99704.81;3057064;19;19918;-47
2022/11/05 03:08:14;;;;;;;;;;;;;;;11.10;100.00;99702.91;3057193;19;19923;-47
2022/11/05 03:09:21;;;;;;;;;;;;;;;11.10;100.00;99702.03;3058304;19;19941;-47
2022/11/05 03:10:33;;;;;;;;;;;;;;;11.10;100.00;99702.91;3056686;19;20026;-47
2022/11/05 03:11:57;;;;;;;;;;;;;;;11.09;100.00;99703.84;3055856;19;19918;-47
2022/11/05 03:13:14;;;;;;;;;;;;;;;11.07;100.00;99705.78;3056513;19;20384;-49
2022/11/05 03:14:35;;;;;;;;;;;;;;;11.06;100.00;99712.09;3055409;19;19919;-47
2022/11/05 03:15:48;;;;;;;;;;;;;;;11.05;100.00;99713.06;3056354;19;19918;-47
2022/11/05 03:16:58;;;;;;;;;;;;;;;11.04;100.00;99714.03;3057958;19;19923;-47
2022/11/05 03:18:29;;;;;;;;;;;;;;;11.04;100.00;99718.50;3056993;19;19911;-47
2022/11/05 03:19:37;;;;;;;;;;;;;;;11.04;100.00;99713.16;3054392;19;19926;-47
2022/11/05 03:20:39;;;;;;;;;;;;;;;11.02;100.00;99715.09;3056075;19;19926;-47
2022/11/05 03:21:46;;;;;;;;;;;;;;;11.03;100.00;99723.00;3056650;19;19926;-47
2022/11/05 03:22:51;;;;;;;;;;;;;;;11.04;100.00;99727.38;3056249;19;19919;-47
2022/11/05 03:23:57;;;;;;;;;;;;;;;11.04;100.00;99724.72;3055698;19;19919;-49
2022/11/05 03:25:01;;;;;;;;;;;;;;;11.03;100.00;99727.50;3056690;19;19918;-47
2022/11/05 03:26:11;;;;;;;;;;;;;;;11.02;100.00;99723.09;3055758;19;19949;-48
2022/11/05 03:27:18;;;;;;;;;;;;;;;11.04;100.00;99735.38;3057453;19;20358;-48
2022/11/05 03:28:23;;;;;;;;;;;;;;;11.05;100.00;99741.56;3057309;19;19926;-48
2022/11/05 03:29:26;;;;;;;;;;;;;;;11.04;100.00;99738.06;3055215;19;20023;-47
2022/11/05 03:30:30;;;;;;;;;;;;;;;11.05;100.00;99739.75;3055970;19;19915;-48
2022/11/05 03:31:32;;;;;;;;;;;;;;;11.04;100.00;99735.38;3055413;19;19926;-47
2022/11/05 03:32:37;;;;;;;;;;;;;;;11.03;100.00;99728.34;3056295;19;20284;-47
2022/11/05 03:33:40;;;;;;;;;;;;;;;11.02;100.00;99729.31;3055575;19;19919;-47
2022/11/05 03:34:46;;;;;;;;;;;;;;;11.02;100.00;99726.63;3057084;19;19931;-47
2022/11/05 03:35:49;;;;;;;;;;;;;;;11.02;100.00;99725.78;3056390;19;19923;-47
2022/11/05 03:36:54;;;;;;;;;;;;;;;11.01;100.00;99730.28;3057230;19;19915;-47
2022/11/05 03:38:01;;;;;;;;;;;;;;;11.01;100.00;99719.59;3056368;19;19949;-47
2022/11/05 03:39:06;;;;;;;;;;;;;;;11.01;100.00;99724.94;3056644;19;19918;-48
2022/11/05 03:40:09;;;;;;;;;;;;;;;11.01;100.00;99724.94;3055563;19;19953;-48
2022/11/05 03:41:13;;;;;;;;;;;;;;;11.01;100.00;99734.75;3056731;19;19919;-47
2022/11/05 03:42:16;;;;;;;;;;;;;;;11.01;100.00;99730.28;3055604;19;19926;-48
2022/11/05 03:43:21;;;;;;;;;;;;;;;11.01;100.00;99734.75;3056159;19;20673;-47
2022/11/05 03:44:24;;;;;;;;;;;;;;;11.00;100.00;99728.56;3055223;19;19919;-47
2022/11/05 03:45:37;;;;;;;;;;;;;;;11.02;100.00;99731.97;3055162;19;19911;-47
2022/11/05 03:46:43;;;;;;;;;;;;;;;11.03;100.00;99733.69;3056144;19;19945;-47
2022/11/05 03:47:47;;;;;;;;;;;;;;;11.05;100.00;99739.75;3055230;19;19967;-47
2022/11/05 03:48:51;;;;;;;;;;;;;;;11.05;100.00;99736.22;3056124;19;19938;-47
2022/11/05 03:49:57;;;;;;;;;;;;;;;11.05;100.00;99739.75;3054845;19;19935;-47
2022/11/05 03:51:02;;;;;;;;;;;;;;;11.05;100.00;99739.75;3056710;19;20014;-47
2022/11/05 03:52:08;;;;;;;;;;;;;;;11.04;100.00;99746.06;3054955;19;19942;-47
2022/11/05 03:53:15;;;;;;;;;;;;;;;11.06;100.00;99741.47;3056341;19;19945;-46
2022/11/05 03:54:19;;;;;;;;;;;;;;;11.07;100.00;99750.31;3054484;19;19974;-47
2022/11/05 03:55:22;;;;;;;;;;;;;;;11.04;100.00;99751.41;3053920;19;19922;-46
2022/11/05 03:56:35;;;;;;;;;;;;;;;11.06;100.00;99753.97;3055316;19;19922;-46
2022/11/05 03:57:37;;;;;;;;;;;;;;;11.05;100.00;99752.25;3055022;19;19943;-47
2022/11/05 03:58:44;;;;;;;;;;;;;;;11.04;100.00;99756.75;3055288;19;19931;-47
2022/11/05 03:59:50;;;;;;;;;;;;;;;11.04;100.00;99758.56;3055112;19;20950;-47
2022/11/05 04:00:52;;;;;;;;;;;;;;;11.04;100.00;99759.41;3056320;19;20011;-47
2022/11/05 04:01:56;;;;;;;;;;;;;;;11.04;100.00;99754.06;3055615;19;19926;-47
2022/11/05 04:02:59;;;;;;;;;;;;;;;11.05;100.00;99757.59;3056281;19;19926;-47
2022/11/05 04:04:03;;;;;;;;;;;;;;;11.04;100.00;99751.41;3055788;19;19953;-47
2022/11/05 04:05:05;;;;;;;;;;;;;;;11.04;100.00;99755.88;3057754;19;20579;-47
2022/11/05 04:13:51;;;;;;;;;;;;;;;10.96;100.00;99758.28;3053513;19;19915;-48
2022/11/05 04:14:52;;;;;;;;;;;;;;;10.94;100.00;99750.41;3055928;19;20334;-48
2022/11/05 04:17:14;;;;;;;;;;;;;;;10.89;100.00;99747.22;3056551;19;20529;-47
2022/11/05 04:18:16;;;;;;;;;;;;;;;10.88;100.00;99750.84;3056104;19;19918;-48
2022/11/05 04:24:07;;;;;;;;;;;;;;;10.90;100.00;99762.25;3055078;19;20346;-47
2022/11/05 04:24:43;;;;;;;;;;;;;;;10.92;100.00;99787.03;3054823;19;19919;-47
2022/11/05 04:25:47;;;;;;;;;;;;;;;10.93;100.00;99785.22;3055300;19;19918;-47
2022/11/05 04:26:49;;;;;;;;;;;;;;;10.91;100.00;99777.31;3057322;19;19929;-47
2022/11/05 04:27:53;;;;;;;;;;;;;;;10.91;100.00;99766.63;3055154;19;20359;-47
2022/11/05 04:30:19;;;;;;;;;;;;;;;10.91;100.00;99776.47;3054865;19;20022;-46
2022/11/05 04:31:21;;;;;;;;;;;;;;;10.89;100.00;99773.91;3055442;19;19982;-47
2022/11/05 04:32:25;;;;;;;;;;;;;;;10.91;100.00;99779.97;3055098;19;19926;-47
2022/11/05 04:33:27;;;;;;;;;;;;;;;10.91;100.00;99771.97;3055554;19;19923;-47
2022/11/05 04:34:31;;;;;;;;;;;;;;;10.91;100.00;99777.31;3054823;19;20447;-47
2022/11/05 04:35:33;;;;;;;;;;;;;;;10.92;100.00;99787.03;3055053;19;19982;-47
2022/11/05 04:36:38;;;;;;;;;;;;;;;10.93;100.00;99778.06;3055960;19;19914;-47
2022/11/05 04:37:39;;;;;;;;;;;;;;;10.93;100.00;99788.72;3055479;19;19919;-47
2022/11/05 04:38:44;;;;;;;;;;;;;;;10.93;100.00;99791.41;3056767;19;19950;-48
2022/11/05 04:39:46;;;;;;;;;;;;;;;10.94;100.00;99793.09;3055039;19;19938;-47
2022/11/05 04:40:50;;;;;;;;;;;;;;;10.95;100.00;99794.81;3056215;19;20055;-46
2022/11/05 04:41:52;;;;;;;;;;;;;;;10.94;100.00;99795.78;3055355;19;19930;-48
2022/11/05 04:42:57;;;;;;;;;;;;;;;10.95;100.00;99800.16;3055966;19;20228;-46
2022/11/05 04:43:59;;;;;;;;;;;;;;;10.96;100.00;99801.84;3055211;19;19983;-47
2022/11/05 04:45:03;;;;;;;;;;;;;;;10.96;100.00;99799.19;3056693;19;19921;-47
2022/11/05 04:46:05;;;;;;;;;;;;;;;10.96;100.00;99807.19;3055406;19;19918;-47
2022/11/05 04:47:09;;;;;;;;;;;;;;;10.94;100.00;99806.47;3056620;19;19940;-47
2022/11/05 04:48:11;;;;;;;;;;;;;;;10.94;100.00;99803.78;3055594;19;19915;-46
2022/11/05 04:49:16;;;;;;;;;;;;;;;10.94;100.00;99808.28;3056424;19;20793;-47
2022/11/05 04:50:17;;;;;;;;;;;;;;;10.93;100.00;99795.88;3055232;19;19926;-47
2022/11/05 04:51:22;;;;;;;;;;;;;;;10.91;100.00;99801.34;3055238;19;20344;-47
2022/11/05 04:52:23;;;;;;;;;;;;;;;10.89;100.00;99784.56;3055336;19;19925;-47
2022/11/05 04:53:28;;;;;;;;;;;;;;;10.87;100.00;99786.50;3056183;19;19930;-47
2022/11/05 04:54:30;;;;;;;;;;;;;;;10.84;100.00;99786.75;3053985;19;19941;-47
2022/11/05 04:55:34;;;;;;;;;;;;;;;10.81;100.00;99778.97;3054249;19;19969;-47
2022/11/05 04:56:36;;;;;;;;;;;;;;;10.77;100.00;99785.47;3055770;19;19938;-47
2022/11/05 04:57:41;;;;;;;;;;;;;;;10.77;100.00;99781.00;3055039;19;19971;-48
2022/11/05 04:58:43;;;;;;;;;;;;;;;10.74;100.00;99791.06;3055978;19;19919;-47
2022/11/05 04:59:50;;;;;;;;;;;;;;;10.68;100.00;99780.81;3054827;19;20246;-48
2022/11/05 05:00:52;;;;;;;;;;;;;;;10.62;100.00;99783.97;3055185;19;20321;-47
2022/11/05 05:01:57;;;;;;;;;;;;;;;10.63;100.00;99793.63;3056854;19;20329;-47
2022/11/05 05:03:01;;;;;;;;;;;;;;;10.64;100.00;99793.53;3056126;19;19950;-47
2022/11/05 05:04:03;;;;;;;;;;;;;;;10.64;100.00;99798.88;3055114;19;19941;-48
2022/11/05 05:05:08;;;;;;;;;;;;;;;10.62;100.00;99792.81;3055755;19;19970;-47
2022/11/05 05:06:10;;;;;;;;;;;;;;;10.59;100.00;99800.19;3055074;19;19982;-47
2022/11/05 05:07:14;;;;;;;;;;;;;;;10.58;100.00;99791.31;3055074;19;20231;-48
2022/11/05 05:08:16;;;;;;;;;;;;;;;10.60;100.00;99800.06;3054458;19;19931;-47
2022/11/05 05:09:20;;;;;;;;;;;;;;;10.58;100.00;99795.81;3054343;19;19950;-47
2022/11/05 05:10:22;;;;;;;;;;;;;;;10.63;100.00;99804.31;3054339;19;19915;-48
2022/11/05 05:11:26;;;;;;;;;;;;;;;10.62;100.00;99802.63;3053947;19;19922;-47
2022/11/05 05:12:28;;;;;;;;;;;;;;;10.61;100.00;99800.94;3054651;19;19923;-47
2022/11/05 05:13:33;;;;;;;;;;;;;;;10.62;100.00;99808.81;3055366;19;19926;-48
2022/11/05 05:14:34;;;;;;;;;;;;;;;10.64;100.00;99811.34;3055358;19;19927;-47
2022/11/05 05:15:39;;;;;;;;;;;;;;;10.64;100.00;99803.34;3054345;19;19915;-47
2022/11/05 05:16:41;;;;;;;;;;;;;;;10.62;100.00;99803.50;3055925;19;19927;-47
2022/11/05 05:17:45;;;;;;;;;;;;;;;10.64;100.00;99806.00;3054555;19;19919;-47
2022/11/05 05:18:47;;;;;;;;;;;;;;;10.62;100.00;99803.50;3055002;19;20354;-47
2022/11/05 05:22:26;;;;;;;;;;;;;;;10.62;100.00;99810.63;3053649;19;19926;-47
2022/11/05 05:23:28;;;;;;;;;;;;;;;10.61;100.00;99808.94;3053085;19;20385;-47
2022/11/05 05:24:32;;;;;;;;;;;;;;;10.59;100.00;99809.03;3054083;19;19915;-47
2022/11/05 05:25:34;;;;;;;;;;;;;;;10.61;100.00;99811.59;3053620;19;20295;-47
2022/11/05 05:26:39;;;;;;;;;;;;;;;10.56;100.00;99814.59;3054172;19;19927;-47
2022/11/05 05:27:41;;;;;;;;;;;;;;;10.60;100.00;99820.56;3053822;19;19959;-47
2022/11/05 05:28:45;;;;;;;;;;;;;;;10.59;100.00;99819.72;3052699;19;19945;-47
2022/11/05 05:29:47;;;;;;;;;;;;;;;10.59;100.00;99837.53;3056309;19;19926;-47
2022/11/05 05:30:52;;;;;;;;;;;;;;;10.57;100.00;99831.44;3058513;19;19923;-47
2022/11/05 05:31:59;;;;;;;;;;;;;;;10.53;100.00;99829.94;3057646;19;19922;-47
2022/11/05 05:33:04;;;;;;;;;;;;;;;10.53;100.00;99829.94;3059123;19;19922;-47
2022/11/05 05:34:06;;;;;;;;;;;;;;;10.53;100.00;99820.13;3059221;19;19922;-47
2022/11/05 05:35:11;;;;;;;;;;;;;;;10.53;100.00;99841.47;3058365;19;20383;-48
2022/11/05 05:36:13;;;;;;;;;;;;;;;10.49;100.00;99829.34;3057624;19;20358;-47
2022/11/05 05:37:18;;;;;;;;;;;;;;;10.48;100.00;99832.13;3059433;19;19923;-47
2022/11/05 05:38:19;;;;;;;;;;;;;;;10.46;100.00;99841.09;3056644;19;20035;-46
2022/11/05 05:39:25;;;;;;;;;;;;;;;10.46;100.00;99830.41;3056586;19;19923;-47
2022/11/05 05:40:27;;;;;;;;;;;;;;;10.42;100.00;99834.25;3057810;19;20349;-47
2022/11/05 05:41:31;;;;;;;;;;;;;;;10.40;100.00;99825.50;3057525;19;20337;-46
2022/11/05 05:42:34;;;;;;;;;;;;;;;10.39;100.00;99822.94;3058258;19;19942;-47
2022/11/05 05:43:46;;;;;;;;;;;;;;;10.37;100.00;99835.56;3058539;19;19933;-46
2022/11/05 05:44:48;;;;;;;;;;;;;;;10.36;100.00;99818.69;3058803;19;19915;-46
2022/11/05 05:45:52;;;;;;;;;;;;;;;10.35;100.00;99832.13;3057646;19;20445;-46
2022/11/05 05:46:54;;;;;;;;;;;;;;;10.29;100.00;99836.06;3058167;19;19946;-46
2022/11/05 05:47:59;;;;;;;;;;;;;;;10.29;100.00;99830.75;3057178;19;20384;-47
2022/11/05 05:49:01;;;;;;;;;;;;;;;10.27;100.00;99832.66;3058758;19;19926;-46
2022/11/05 05:50:11;;;;;;;;;;;;;;;10.27;100.00;99835.31;3057417;19;19925;-47
2022/11/05 05:51:12;;;;;;;;;;;;;;;10.28;100.00;99830.84;3059244;19;19919;-46
2022/11/05 05:52:17;;;;;;;;;;;;;;;10.27;100.00;99834.47;3057756;19;19927;-46
2022/11/05 05:53:19;;;;;;;;;;;;;;;10.28;100.00;99834.38;3057511;19;19914;-46
2022/11/05 05:54:23;;;;;;;;;;;;;;;10.31;100.00;99835.97;3059471;19;19923;-46
2022/11/05 05:55:32;;;;;;;;;;;;;;;10.29;100.00;99844.06;3056577;19;19975;-46
2022/11/05 05:56:37;;;;;;;;;;;;;;;10.28;100.00;99842.38;3058727;19;19930;-46
2022/11/05 05:57:39;;;;;;;;;;;;;;;10.27;100.00;99840.66;3057903;19;19995;-46
2022/11/05 05:58:44;;;;;;;;;;;;;;;10.26;100.00;99838.97;3057509;19;20397;-46
2022/11/05 05:59:46;;;;;;;;;;;;;;;10.28;100.00;99841.50;3057325;19;19915;-46
2022/11/05 06:00:50;;;;;;;;;;;;;;;10.26;100.00;99832.78;3055563;19;20498;-46
2022/11/05 06:01:52;;;;;;;;;;;;;;;10.28;100.00;99836.19;3057506;19;20624;-47
2022/11/05 06:02:57;;;;;;;;;;;;;;;10.28;100.00;99831.69;3058554;19;19945;-46
2022/11/05 06:03:59;;;;;;;;;;;;;;;10.31;100.00;99839.50;3057541;19;19954;-47
2022/11/05 06:05:03;;;;;;;;;;;;;;;10.31;100.00;99842.16;3057470;19;19918;-46
2022/11/05 06:06:06;;;;;;;;;;;;;;;10.35;100.00;99853.47;3058305;19;20014;-46
2022/11/05 06:07:10;;;;;;;;;;;;;;;10.36;100.00;99850.69;3058106;19;19941;-47
2022/11/05 06:08:12;;;;;;;;;;;;;;;10.37;100.00;99847.06;3057598;19;20353;-47
2022/11/05 06:09:17;;;;;;;;;;;;;;;10.40;100.00;99852.16;3058471;19;19915;-46
2022/11/05 06:10:19;;;;;;;;;;;;;;;10.43;100.00;99851.09;3057819;19;19986;-46
2022/11/05 06:11:24;;;;;;;;;;;;;;;10.42;100.00;99844.91;3059533;19;20055;-46
2022/11/05 06:12:28;;;;;;;;;;;;;;;10.43;100.00;99841.28;3058590;19;20230;-46
2022/11/05 06:13:32;;;;;;;;;;;;;;;10.44;100.00;99847.47;3058199;19;19915;-46
2022/11/05 06:14:34;;;;;;;;;;;;;;;10.41;100.00;99853.88;3058718;19;19930;-47
2022/11/05 06:15:38;;;;;;;;;;;;;;;10.43;100.00;99853.78;3057285;19;19938;-46
2022/11/05 06:16:40;;;;;;;;;;;;;;;10.43;100.00;99859.97;3060288;19;19941;-47
2022/11/05 06:17:45;;;;;;;;;;;;;;;10.40;100.00;99857.50;3058282;19;19919;-46